Terminal Aerodrome Forecast
Issued by NWS Sioux Falls, SD

Home | Current Version | Previous Version | Graphics & Text | Print | Product List | Glossary On
Versions: 1 2 3 4 5 6 7 8 9 10 11 12 13 14
000
FTUS43 KFSD 291720
TAFSUX
TAF
KSUX 291720Z 2918/3018 06008KT P6SM OVC015
     FM292200 07012KT P6SM BKN025
     FM300000 07012KT P6SM VCSH SCT025 BKN080
     FM300600 08014G21KT P6SM RA OVC020
     FM300800 07018G25KT P6SM RA OVC015
     FM301300 06019G27KT 3SM RA OVC007=

USA.gov is the U.S. government's official web portal to all federal, state and local government web resources and services.